aviador You're here:

SCCH Decoded Metar

CHILLAN in CHILE
Report Time2017-11-20 22:00:00
UTC Time2017-11-20 23:00:55
Flight Rules vfr VFR
Wind230° at 07 kt
W.Decomp.*RWY 22: 7.0 kt HW 0.6 kt RCW
W.Rank230° ranks 4
Current wind is above 230° avg. (4.9)
Visibility9999 m
Phenomena:N/A
Clouds:N/A
Expected CloudBase > 8,400 ft AGL from Temp-Dew spread
CeilingNone
Temp22°C (ISA +8)
Dew Point01°C (25% RH)
AAT17.7°C
QNH1018 hPa
Density Alt1,339 ft
Elevation486 ft
Report Wrong Elevation
Raw Report
SCCH 202200Z 23007KT CAVOK 22/01 Q1018=

Extra information for SCCH:More info

Metar Taf Metar & Taf Last 4 Metars F.Rules Stats Wind Profile Meteogram Temp Stats Airport Information Weather charts Add Link Nearby VenuesMetar ALERT Operation Metar Decoded Social comments